Flight Track Log - Related Links

Times and Time Zones

All times are in EDT time to prevent confusion due to time zone crossing. See the UAE135 flight status page for this flight to view local times or setup timezone preferences in your user account.

Time Position Orientation Groundspeed Altitude Reporting Facility
EDT Latitude Longitude Course Direction KTS MPH feet Rate Location/Type
Mon 02:17:33 AM 25.2520 55.3730 302° West 110 127  Level FlightAware ADS-B
Mon 02:17:57 AM 25.2610 55.3580 304° West 175 201 1,320 Level FlightAware ADS-B
Mon 02:18:23 AM 25.2740 55.3340 301° West 199 229 1,100 2,615 Climbing FlightAware ADS-B
Mon 02:18:36 AM 25.2800 55.3230 301° West 198 228 1,700 1,818 Climbing FlightAware ADS-B
Mon 02:18:56 AM 25.2910 55.3040 303° West 227 261 2,100 1,846 Climbing FlightAware ADS-B
Mon 02:19:15 AM 25.3020 55.2840 301° West 235 270 2,900 2,500 Climbing FlightAware ADS-B
Mon 02:19:32 AM 25.3110 55.2660 299° West 242 278 3,600 2,211 Climbing FlightAware ADS-B
Mon 02:19:53 AM 25.3240 55.2430 302° West 261 300 4,300 2,049 Climbing FlightAware ADS-B
Mon 02:20:13 AM 25.3360 55.2200 300° West 272 313 5,000 2,400 Climbing FlightAware ADS-B
Mon 02:20:28 AM 25.3440 55.2010 295° West 274 315 5,700 2,750 Climbing FlightAware ADS-B
Mon 02:20:37 AM 25.3460 55.1890 280° West 273 314 6,100 2,077 Climbing FlightAware ADS-B
Mon 02:20:54 AM 25.3430 55.1660 262° West 274 315 6,600 1,385 Climbing FlightAware ADS-B
Mon 02:21:16 AM 25.3370 55.1320 259° West 308 354 7,000 714 Climbing FlightAware ADS-B
Mon 02:21:36 AM 25.3310 55.1010 258° West 330 380 7,100 1,135 Climbing FlightAware ADS-B
Mon 02:21:53 AM 25.3250 55.0720 257° West 335 386 7,700 2,400 Climbing FlightAware ADS-B
Mon 02:22:11 AM 25.3220 55.0420 264° West 343 395 8,500 2,780 Climbing FlightAware ADS-B
Mon 02:22:34 AM 25.3270 55.0010 278° West 351 404 9,600 2,897 Climbing FlightAware ADS-B
Mon 02:23:09 AM 25.3430 54.9390 286° West 363 418 11,300 2,597 Climbing FlightAware ADS-B
Mon 02:23:41 AM 25.3580 54.8790 285° West 383 441 12,500 2,381 Climbing FlightAware ADS-B
Mon 02:24:12 AM 25.3730 54.8210 286° West 390 449 13,800 2,500 Climbing FlightAware ADS-B
Mon 02:24:53 AM 25.3920 54.7450 285° West 389 448 15,500 2,222 Climbing FlightAware ADS-B
Mon 02:25:33 AM 25.4110 54.6660 285° West 404 465 16,800 1,920 Climbing FlightAware ADS-B
Mon 02:26:08 AM 25.4280 54.6000 286° West 412 474 17,900 2,143 Climbing FlightAware ADS-B
Mon 02:26:43 AM 25.4460 54.5230 285° West 418 481 19,300 2,160 Climbing FlightAware ADS-B
Mon 02:27:23 AM 25.4670 54.4390 285° West 429 494 20,600 1,971 Climbing FlightAware ADS-B
Mon 02:27:53 AM 25.4830 54.3750 285° West 434 499 21,600 1,594 Climbing FlightAware ADS-B
Mon 02:28:27 AM 25.5010 54.3000 285° West 452 520 22,300 1,297 Climbing FlightAware ADS-B
Mon 02:29:07 AM 25.5240 54.2070 285° West 469 540 23,200 1,440 Climbing FlightAware ADS-B
Mon 02:29:42 AM 25.5430 54.1280 285° West 476 548 24,100 1,545 Climbing FlightAware ADS-B
Mon 02:30:13 AM 25.5610 54.0530 285° West 483 556 24,900 1,545 Climbing FlightAware ADS-B
Mon 02:30:48 AM 25.5800 53.9770 286° West 491 565 25,800 1,543 Climbing FlightAware ADS-B
Mon 02:31:23 AM 25.6080 53.8860 289° West 496 571 26,700 1,543 Climbing FlightAware ADS-B
Mon 02:31:58 AM 25.6370 53.8020 291° West 506 582 27,600 1,886 Climbing FlightAware ADS-B
Mon 02:32:33 AM 25.6620 53.7260 290° West 501 577 28,900 2,466 Climbing FlightAware ADS-B
Mon 02:33:11 AM 25.6960 53.6250 291° West 485 558 30,600 1,644 Climbing FlightAware ADS-B
Mon 02:33:46 AM 25.7240 53.5420 291° West 501 577 30,900 1,043 Climbing FlightAware ADS-B
Mon 02:34:43 AM 25.7680 53.4090 290° West 501 577 32,200 1,551 Climbing FlightAware ADS-B
Mon 02:35:15 AM 25.7950 53.3270 290° West 500 575 33,200 1,588 Climbing FlightAware ADS-B
Mon 02:35:51 AM 25.8240 53.2390 290° West 496 571 34,000 696 Climbing FlightAware ADS-B
Mon 02:36:24 AM 25.8510 53.1640 292° West 496 571 34,000  Level FlightAware ADS-B
Mon 02:37:18 AM 25.9010 53.0400 294° West 493 567 34,000  Level FlightAware ADS-B
Mon 02:37:47 AM 25.9290 52.9710 294° West 492 566 34,000  Level FlightAware ADS-B
Mon 02:38:30 AM 25.9700 52.8700 294° West 495 570 34,000  Level FlightAware ADS-B
Mon 02:39:07 AM 26.0050 52.7840 294° West 495 570 34,000  Level FlightAware ADS-B
Mon 02:39:52 AM 26.0470 52.6860 296° West 496 571 34,000  Level FlightAware ADS-B
Mon 02:40:31 AM 26.0860 52.6000 297° West 497 572 34,000  Level FlightAware ADS-B
Mon 02:41:05 AM 26.1240 52.5180 297° West 498 573 34,000  Level FlightAware ADS-B
Mon 02:41:41 AM 26.1610 52.4360 297° West 494 568 34,000  Level FlightAware ADS-B
Mon 02:42:15 AM 26.1970 52.3550 296° West 494 568 34,000  Level FlightAware ADS-B
Mon 02:42:51 AM 26.2320 52.2760 296° West 494 568 34,000  Level FlightAware ADS-B
Mon 02:43:26 AM 26.2670 52.1950 296° West 498 573 34,000  Level FlightAware ADS-B
Mon 02:44:01 AM 26.3020 52.1130 295° West 497 572 34,000  Level FlightAware ADS-B
Mon 02:44:36 AM 26.3370 52.0320 296° West 494 568 34,000  Level FlightAware ADS-B
Mon 02:45:12 AM 26.3700 51.9530 295° West 496 571 34,000  Level FlightAware ADS-B
Mon 02:45:46 AM 26.4010 51.8660 292° West 497 572 34,000  Level FlightAware ADS-B
Mon 02:46:20 AM 26.4290 51.7840 291° West 494 568 34,000  Level FlightAware ADS-B
Mon 02:46:55 AM 26.4570 51.6990 290° West 494 568 34,000  Level FlightAware ADS-B
Mon 02:47:30 AM 26.4850 51.6160 291° West 494 568 34,000  Level FlightAware ADS-B
Mon 02:48:06 AM 26.5120 51.5340 290° West 494 568 34,000  Level FlightAware ADS-B
Mon 02:48:43 AM 26.5410 51.4470 290° West 495 570 34,000  Level FlightAware ADS-B
Mon 02:49:17 AM 26.5700 51.3610 291° West 495 570 34,000  Level FlightAware ADS-B
Mon 02:49:51 AM 26.5960 51.2810 290° West 495 570 34,000  Level FlightAware ADS-B
Mon 02:50:27 AM 26.6260 51.1920 291° West 495 570 34,000  Level FlightAware ADS-B
Mon 02:51:01 AM 26.6530 51.1110 290° West 495 570 34,000  Level FlightAware ADS-B
Mon 02:51:36 AM 26.6780 51.0330 290° West 494 568 34,000  Level FlightAware ADS-B
Mon 02:52:26 AM 26.7190 50.9030 289° West 500 575 34,000  Level FlightAware ADS-B
Mon 02:53:02 AM 26.7460 50.8180 290° West 501 577 34,000  Level FlightAware ADS-B
Mon 02:53:41 AM 26.7760 50.7200 289° West 503 579 34,000  Level FlightAware ADS-B
Mon 02:54:21 AM 26.8090 50.6230 291° West 504 580 34,000  Level FlightAware ADS-B
Mon 02:55:02 AM 26.8360 50.5440 291° West 503 579 34,000  Level FlightAware ADS-B
Mon 02:55:35 AM 26.8660 50.4590 292° West 502 578 34,000  Level FlightAware ADS-B
Mon 02:56:11 AM 26.8910 50.3840 291° West 502 578 34,000  Level FlightAware ADS-B
Mon 02:56:48 AM 26.9180 50.3080 292° West 502 578 34,000  Level FlightAware ADS-B
Mon 02:57:25 AM 26.9440 50.2310 291° West 502 578 34,000  Level FlightAware ADS-B
Mon 02:57:52 AM 27.0350 50.1480 321° Northwest 34,000  Level FlightAware ADS-B
Mon 02:58:58 AM 27.1600 50.0300 320° Northwest 501 577 34,000  Level FlightAware ADS-B
Mon 02:59:42 AM 27.2410 49.9650 324° Northwest 500 575 34,000  Level FlightAware ADS-B
Mon 03:00:25 AM 27.3110 49.9060 323° Northwest 500 575 34,000  Level FlightAware ADS-B
Mon 03:01:01 AM 27.3670 49.8580 323° Northwest 500 575 34,000  Level FlightAware ADS-B
Mon 03:01:37 AM 27.4240 49.8100 323° Northwest 500 575 34,000  Level FlightAware ADS-B
Mon 03:02:13 AM 27.4800 49.7620 323° Northwest 500 575 34,000  Level FlightAware ADS-B
Mon 03:02:49 AM 27.5370 49.7140 323° Northwest 500 575 34,000  Level FlightAware ADS-B
Mon 03:03:26 AM 27.5950 49.6650 323° Northwest 500 575 34,000  Level FlightAware ADS-B
Mon 03:04:02 AM 27.6520 49.6170 323° Northwest 500 575 34,000  Level FlightAware ADS-B
Mon 03:04:38 AM 27.7080 49.5690 323° Northwest 500 575 34,000  Level FlightAware ADS-B
Mon 03:05:14 AM 27.7650 49.5210 323° Northwest 500 575 34,000  Level FlightAware ADS-B
Mon 03:05:50 AM 27.8210 49.4730 323° Northwest 500 575 34,000  Level FlightAware ADS-B
Mon 03:06:26 AM 27.8780 49.4240 323° Northwest 500 575 34,000  Level FlightAware ADS-B
Mon 03:09:00 AM 28.0673 49.1781 311° West  Level Estimated
Mon 03:10:00 AM 28.1409 49.0821 311° West  Level Estimated
Mon 03:11:00 AM 28.2145 48.9859 311° West  Level Estimated
Mon 03:12:00 AM 28.2880 48.8896 311° West  Level Estimated
Mon 03:13:00 AM 28.3615 48.7932 311° West  Level Estimated
Mon 03:14:00 AM 28.4348 48.6966 311° West  Level Estimated
Mon 03:15:00 AM 28.5081 48.5999 311° West  Level Estimated
Mon 03:16:00 AM 28.5814 48.5031 311° West  Level Estimated
Mon 03:17:00 AM 28.6545 48.4062 311° West  Level Estimated
Mon 03:18:00 AM 28.7276 48.3091 311° West  Level Estimated
Mon 03:19:00 AM 28.8006 48.2118 311° West  Level Estimated
Mon 03:20:00 AM 28.8736 48.1144 311° West  Level Estimated
Mon 03:21:00 AM 28.9465 48.0169 311° West  Level Estimated
Mon 03:22:00 AM 29.0193 47.9193 310° West  Level Estimated
Mon 03:23:00 AM 29.0920 47.8215 310° West  Level Estimated
Mon 03:24:00 AM 29.1647 47.7236 310° West  Level Estimated
Mon 03:25:00 AM 29.2373 47.6255 310° West  Level Estimated
Mon 03:26:00 AM 29.3098 47.5273 310° West  Level Estimated
Mon 03:27:00 AM 29.3823 47.4290 310° West  Level Estimated
Mon 03:28:00 AM 29.4547 47.3305 310° West  Level Estimated
Mon 03:29:00 AM 29.5270 47.2319 310° West  Level Estimated
Mon 03:30:00 AM 29.5992 47.1331 310° West  Level Estimated
Mon 03:31:00 AM 29.6714 47.0342 310° West  Level Estimated
Mon 03:32:00 AM 29.7435 46.9352 310° West  Level Estimated
Mon 03:33:00 AM 29.8155 46.8360 310° West  Level Estimated
Mon 03:34:00 AM 29.8874 46.7367 310° West  Level Estimated
Mon 03:35:00 AM 29.9593 46.6372 310° West  Level Estimated
Mon 03:36:00 AM 30.0311 46.5376 310° West  Level Estimated
Mon 03:37:00 AM 30.1028 46.4378 310° West  Level Estimated
Mon 03:38:00 AM 30.1744 46.3379 310° West  Level Estimated
Mon 03:39:00 AM 30.2460 46.2379 310° West  Level Estimated
Mon 03:40:00 AM 30.3175 46.1376 310° West  Level Estimated
Mon 03:41:00 AM 30.3889 46.0373 310° West  Level Estimated
Mon 03:42:00 AM 30.4603 45.9368 309° West  Level Estimated
Mon 03:43:00 AM 30.5315 45.8362 309° West  Level Estimated
Mon 03:44:00 AM 30.6027 45.7354 309° West  Level Estimated
Mon 03:45:00 AM 30.6738 45.6345 309° West  Level Estimated
Mon 03:46:00 AM 30.7448 45.5334 309° West  Level Estimated
Mon 03:46:18 AM 32.1730 45.3050 309° West 506 582 34,000  Level FlightAware ADS-B
Mon 03:47:05 AM 32.2690 45.2580 338° Northwest 505 581 34,000  Level FlightAware ADS-B
Mon 03:47:41 AM 32.3510 45.2200 339° North 506 582 34,000  Level FlightAware ADS-B
Mon 03:48:13 AM 32.4210 45.1870 338° Northwest 506 582 34,000  Level FlightAware ADS-B
Mon 03:48:51 AM 32.5040 45.1480 338° Northwest 505 581 34,000  Level FlightAware ADS-B
Mon 03:49:27 AM 32.5830 45.1120 339° North 507 583 34,000  Level FlightAware ADS-B
Mon 03:49:58 AM 32.6500 45.0780 337° Northwest 506 582 34,000  Level FlightAware ADS-B
Mon 03:50:33 AM 32.7220 45.0360 334° Northwest 504 580 34,000  Level FlightAware ADS-B
Mon 03:51:09 AM 32.7960 44.9910 333° Northwest 503 579 34,000  Level FlightAware ADS-B
Mon 03:51:45 AM 32.8710 44.9450 333° Northwest 504 580 34,000  Level FlightAware ADS-B
Mon 03:52:21 AM 32.9480 44.8980 333° Northwest 506 582 34,000  Level FlightAware ADS-B
Mon 03:52:54 AM 33.0180 44.8550 333° Northwest 506 582 34,000  Level FlightAware ADS-B
Mon 03:53:28 AM 33.0890 44.8120 333° Northwest 506 582 34,000  Level FlightAware ADS-B
Mon 03:54:06 AM 33.1650 44.7650 333° Northwest 507 583 34,000  Level FlightAware ADS-B
Mon 03:54:38 AM 33.2370 44.7280 337° Northwest 518 596 34,000  Level FlightAware ADS-B
Mon 03:55:14 AM 33.3200 44.6950 342° North 523 602 34,000  Level FlightAware ADS-B
Mon 03:55:42 AM 33.3860 44.6710 343° North 522 601 34,000  Level FlightAware ADS-B
Mon 03:56:31 AM 33.4960 44.6300 343° North 518 596 34,000  Level FlightAware ADS-B
Mon 03:56:59 AM 33.5600 44.6030 341° North 514 592 34,000  Level FlightAware ADS-B
Mon 03:57:30 AM 33.6290 44.5700 338° Northwest 512 589 34,000  Level FlightAware ADS-B
Mon 03:58:10 AM 33.7170 44.5270 338° Northwest 510 587 34,000  Level FlightAware ADS-B
Mon 03:58:44 AM 33.7920 44.4900 338° Northwest 508 585 34,000  Level FlightAware ADS-B
Mon 03:59:19 AM 33.8660 44.4530 337° Northwest 508 585 34,000  Level FlightAware ADS-B
Mon 03:59:53 AM 33.9400 44.4170 338° Northwest 509 586 34,000  Level FlightAware ADS-B
Mon 04:00:30 AM 34.0220 44.3760 337° Northwest 510 587 34,000  Level FlightAware ADS-B
Mon 04:01:00 AM 34.0870 44.3440 338° Northwest 511 588 34,000  Level FlightAware ADS-B
Mon 04:01:36 AM 34.1560 44.3090 337° Northwest 511 588 34,000  Level FlightAware ADS-B
Mon 04:02:12 AM 34.2220 44.2750 337° Northwest 511 588 34,000  Level FlightAware ADS-B
Mon 04:02:48 AM 34.2890 44.2400 337° Northwest 511 588 34,000  Level FlightAware ADS-B
Mon 04:03:24 AM 34.3560 44.2060 337° Northwest 511 588 34,000  Level FlightAware ADS-B
Mon 04:04:01 AM 34.4240 44.1710 337° Northwest 511 588 34,000  Level FlightAware ADS-B
Mon 04:04:37 AM 34.4910 44.1370 337° Northwest 511 588 34,000  Level FlightAware ADS-B
Mon 04:05:13 AM 34.5570 44.1020 336° Northwest 511 588 34,000  Level FlightAware ADS-B
Mon 04:05:49 AM 34.6240 44.0680 337° Northwest 511 588 34,000  Level FlightAware ADS-B
Mon 04:06:26 AM 34.6920 44.0330 337° Northwest 511 588 34,000  Level FlightAware ADS-B
Mon 04:07:02 AM 34.7590 43.9980 337° Northwest 511 588 34,000  Level FlightAware ADS-B
Mon 04:07:51 AM 34.8490 43.9520 337° Northwest 511 588 34,000  Level FlightAware ADS-B
Mon 04:08:27 AM 34.9160 43.9170 337° Northwest 511 588 34,000  Level FlightAware ADS-B
Mon 04:09:03 AM 34.9830 43.8830 337° Northwest 511 588 34,000  Level FlightAware ADS-B
Mon 04:09:39 AM 35.0490 43.8480 337° Northwest 511 588 34,000  Level FlightAware ADS-B
Mon 04:10:15 AM 35.1160 43.8140 337° Northwest 511 588 34,000  Level FlightAware ADS-B
Mon 04:10:51 AM 35.1820 43.7790 337° Northwest 511 588 34,000 38 Level FlightAware ADS-B
Mon 04:13:00 AM 35.3136 43.5313 303° West  Level Estimated
Mon 04:14:00 AM 35.3747 43.4159 303° West  Level Estimated
Mon 04:15:00 AM 35.4356 43.3002 303° West  Level Estimated
Mon 04:16:00 AM 35.4964 43.1844 303° West  Level Estimated
Mon 04:17:00 AM 35.5571 43.0684 303° West  Level Estimated
Mon 04:18:00 AM 35.6177 42.9522 303° West  Level Estimated
Mon 04:19:00 AM 35.6782 42.8359 303° West  Level Estimated
Mon 04:20:00 AM 35.7386 42.7193 303° West  Level Estimated
Mon 04:21:00 AM 35.7989 42.6026 303° West  Level Estimated
Mon 04:22:00 AM 35.8590 42.4858 302° West  Level Estimated
Mon 04:23:00 AM 35.9190 42.3687 302° West  Level Estimated
Mon 04:24:00 AM 35.9790 42.2515 302° West  Level Estimated
Mon 04:25:00 AM 36.0388 42.1341 302° West  Level Estimated
Mon 04:26:00 AM 36.0985 42.0165 302° West  Level Estimated
Mon 04:27:00 AM 36.1581 41.8987 302° West  Level Estimated
Mon 04:28:00 AM 36.2175 41.7808 302° West  Level Estimated
Mon 04:29:00 AM 36.2769 41.6626 302° West  Level Estimated
Mon 04:30:00 AM 36.3361 41.5443 302° West  Level Estimated
Mon 04:31:00 AM 36.3952 41.4258 302° West  Level Estimated
Mon 04:32:00 AM 36.4542 41.3072 302° West  Level Estimated
Mon 04:33:00 AM 36.5131 41.1883 302° West  Level Estimated
Mon 04:34:00 AM 36.5719 41.0693 302° West  Level Estimated
Mon 04:35:00 AM 36.6305 40.9501 302° West  Level Estimated
Mon 04:36:00 AM 36.6891 40.8307 301° West  Level Estimated
Mon 04:37:00 AM 36.7475 40.7111 301° West  Level Estimated
Mon 04:38:00 AM 36.8058 40.5914 301° West  Level Estimated
Mon 04:39:00 AM 36.8639 40.4714 301° West  Level Estimated
Mon 04:40:00 AM 36.9220 40.3513 301° West  Level Estimated
Mon 04:41:00 AM 36.9799 40.2310 301° West  Level Estimated
Mon 04:42:00 AM 37.0377 40.1105 301° West  Level Estimated
Mon 04:43:00 AM 37.0954 39.9898 301° West  Level Estimated
Mon 04:44:00 AM 37.1530 39.8690 301° West  Level Estimated
Mon 04:45:00 AM 37.2104 39.7480 301° West  Level Estimated
Mon 04:46:00 AM 37.2677 39.6268 301° West  Level Estimated
Mon 04:47:00 AM 37.3249 39.5053 301° West  Level Estimated
Mon 04:48:00 AM 37.3820 39.3838 301° West  Level Estimated
Mon 04:49:00 AM 37.4389 39.2620 301° West  Level Estimated
Mon 04:50:00 AM 37.4957 39.1400 300° West  Level Estimated
Mon 04:51:00 AM 37.5524 39.0179 300° West  Level Estimated
Mon 04:52:00 AM 37.6090 38.8956 300° West  Level Estimated
Mon 04:53:00 AM 37.6654 38.7730 300° West  Level Estimated
Mon 04:54:00 AM 37.7217 38.6503 300° West  Level Estimated
Mon 04:55:00 AM 37.7779 38.5275 300° West  Level Estimated
Mon 04:56:00 AM 37.8339 38.4044 300° West  Level Estimated
Mon 04:57:00 AM 37.8899 38.2811 300° West  Level Estimated
Mon 04:58:00 AM 37.9457 38.1577 300° West  Level Estimated
Mon 04:59:00 AM 38.0013 38.0340 300° West  Level Estimated
Mon 05:00:00 AM 38.0569 37.9102 300° West  Level Estimated
Mon 05:01:00 AM 38.1123 37.7862 300° West  Level Estimated
Mon 05:02:00 AM 38.1676 37.6620 300° West  Level Estimated
Mon 05:02:25 AM 39.3610 37.2580 300° West 462 532 36,000  Level FlightAware ADS-B
Mon 05:03:15 AM 39.3950 37.1280 289° West 463 533 36,000  Level FlightAware ADS-B
Mon 05:03:52 AM 39.4160 37.0450 288° West 463 533 36,000  Level FlightAware ADS-B
Mon 05:04:29 AM 39.4370 36.9620 288° West 463 533 36,000  Level FlightAware ADS-B
Mon 05:05:15 AM 39.4620 36.8590 287° West 463 533 36,000  Level FlightAware ADS-B
Mon 05:05:51 AM 39.4830 36.7780 289° West 463 533 36,000  Level FlightAware ADS-B
Mon 05:06:27 AM 39.5030 36.6970 288° West 463 533 36,000  Level FlightAware ADS-B
Mon 05:07:11 AM 39.5500 36.5250 290° West 469 540 36,000  Level FlightAware ADS-B
Mon 05:07:47 AM 39.5710 36.4430 288° West 469 540 36,000  Level FlightAware ADS-B
Mon 05:08:23 AM 39.5910 36.3610 288° West 469 540 36,000  Level FlightAware ADS-B
Mon 05:08:59 AM 39.6120 36.2790 288° West 469 540 36,000  Level FlightAware ADS-B
Mon 05:09:35 AM 39.6320 36.1970 288° West 469 540 36,000  Level FlightAware ADS-B
Mon 05:10:11 AM 39.6530 36.1150 288° West 469 540 36,000  Level FlightAware ADS-B
Mon 05:10:35 AM 39.6660 36.0600 287° West 469 540 36,000  Level FlightAware ADS-B
Mon 05:11:11 AM 39.6870 35.9780 288° West 469 540 36,000  Level FlightAware ADS-B
Mon 05:11:48 AM 39.7080 35.8940 288° West 469 540 36,000  Level FlightAware ADS-B
Mon 05:12:22 AM 39.7610 35.6810 288° West 36,000  Level FlightAware ADS-B
Mon 05:13:02 AM 39.7860 35.5820 288° West 466 536 36,000  Level FlightAware ADS-B
Mon 05:13:42 AM 39.8070 35.4900 287° West 466 536 36,000  Level FlightAware ADS-B
Mon 05:14:18 AM 39.8260 35.4080 287° West 466 536 36,000  Level FlightAware ADS-B
Mon 05:14:54 AM 39.8460 35.3260 288° West 466 536 36,000  Level FlightAware ADS-B
Mon 05:15:30 AM 39.8650 35.2440 287° West 466 536 36,000  Level FlightAware ADS-B
Mon 05:16:02 AM 39.9020 35.1000 289° West 458 527 36,000  Level FlightAware ADS-B
Mon 05:16:42 AM 39.9290 34.9900 288° West 457 526 36,000  Level FlightAware ADS-B
Mon 05:17:35 AM 39.9580 34.8680 287° West 455 524 36,000  Level FlightAware ADS-B
Mon 05:18:11 AM 39.9760 34.7870 286° West 455 524 36,000  Level FlightAware ADS-B
Mon 05:18:42 AM 40.0030 34.6770 288° West 458 527 36,000  Level FlightAware ADS-B
Mon 05:19:17 AM 40.0230 34.5920 287° West 453 521 36,000  Level FlightAware ADS-B
Mon 05:20:02 AM 40.0520 34.4680 287° West 448 516 36,000  Level FlightAware ADS-B
Mon 05:20:37 AM 40.0720 34.3800 287° West 445 512 36,000  Level FlightAware ADS-B
Mon 05:21:18 AM 40.0970 34.2750 287° West 443 510 36,000  Level FlightAware ADS-B
Mon 05:21:52 AM 40.1160 34.1910 287° West 444 511 36,000  Level FlightAware ADS-B
Mon 05:22:27 AM 40.1380 34.0970 287° West 444 511 36,000  Level FlightAware ADS-B
Mon 05:23:07 AM 40.1610 33.9960 287° West 445 512 36,000  Level FlightAware ADS-B
Mon 05:23:37 AM 40.1790 33.9160 286° West 448 516 36,000  Level FlightAware ADS-B
Mon 05:24:12 AM 40.2000 33.8240 287° West 452 520 36,000  Level FlightAware ADS-B
Mon 05:24:47 AM 40.2200 33.7340 286° West 453 521 36,000  Level FlightAware ADS-B
Mon 05:25:22 AM 40.2410 33.6440 287° West 451 519 36,000  Level FlightAware ADS-B
Mon 05:25:57 AM 40.2600 33.5560 286° West 449 517 36,000  Level FlightAware ADS-B
Mon 05:26:32 AM 40.2820 33.4600 287° West 446 513 36,000  Level FlightAware ADS-B
Mon 05:27:07 AM 40.3020 33.3690 286° West 442 509 36,000  Level FlightAware ADS-B
Mon 05:27:42 AM 40.3210 33.2840 286° West 442 509 36,000  Level FlightAware ADS-B
Mon 05:28:22 AM 40.3450 33.1770 286° West 443 510 36,000  Level FlightAware ADS-B
Mon 05:28:52 AM 40.3610 33.1030 286° West 443 510 36,000  Level FlightAware ADS-B
Mon 05:29:27 AM 40.3810 33.0110 286° West 440 506 36,000  Level FlightAware ADS-B
Mon 05:30:07 AM 40.4040 32.9070 286° West 438 504 36,000  Level FlightAware ADS-B
Mon 05:30:37 AM 40.4200 32.8290 285° West 439 505 36,000  Level FlightAware ADS-B
Mon 05:31:12 AM 40.4400 32.7400 286° West 441 507 36,000  Level FlightAware ADS-B
Mon 05:31:50 AM 40.4590 32.6520 286° West 442 509 36,000  Level FlightAware ADS-B
Mon 05:32:22 AM 40.4790 32.5590 286° West 443 510 36,000  Level FlightAware ADS-B
Mon 05:32:57 AM 40.4980 32.4690 286° West 442 509 36,000  Level FlightAware ADS-B
Mon 05:33:32 AM 40.5160 32.3810 285° West 444 511 36,000  Level FlightAware ADS-B
Mon 05:34:07 AM 40.5360 32.2900 286° West 445 512 36,000  Level FlightAware ADS-B
Mon 05:34:42 AM 40.5560 32.1960 286° West 447 514 36,000  Level FlightAware ADS-B
Mon 05:35:19 AM 40.5740 32.1070 285° West 445 512 36,000  Level FlightAware ADS-B
Mon 05:35:52 AM 40.5940 32.0140 286° West 443 510 36,000  Level FlightAware ADS-B
Mon 05:36:27 AM 40.6120 31.9250 285° West 443 510 36,000  Level FlightAware ADS-B
Mon 05:37:07 AM 40.6340 31.8190 285° West 440 506 36,000  Level FlightAware ADS-B
Mon 05:37:37 AM 40.6500 31.7430 286° West 439 505 36,000  Level FlightAware ADS-B
Mon 05:38:12 AM 40.6680 31.6530 285° West 438 504 36,000  Level FlightAware ADS-B
Mon 05:38:49 AM 40.6870 31.5620 285° West 437 503 36,000  Level FlightAware ADS-B
Mon 05:39:27 AM 40.7070 31.4600 285° West 437 503 36,000  Level FlightAware ADS-B
Mon 05:39:57 AM 40.7230 31.3820 285° West 437 503 36,000  Level FlightAware ADS-B
Mon 05:40:35 AM 40.7420 31.2870 285° West 435 501 36,000  Level FlightAware ADS-B
Mon 05:41:15 AM 40.7610 31.1970 286° West 434 499 36,000  Level FlightAware ADS-B
Mon 05:41:50 AM 40.7810 31.0960 285° West 432 497 36,000  Level FlightAware ADS-B
Mon 05:42:25 AM 40.7990 31.0060 285° West 432 497 36,000  Level FlightAware ADS-B
Mon 05:43:00 AM 40.8190 30.9280 289° West 425 489 36,000  Level FlightAware ADS-B
Mon 05:43:35 AM 40.8510 30.8390 295° West 424 488 36,000  Level FlightAware ADS-B
Mon 05:44:10 AM 40.8790 30.7560 294° West 421 484 36,000  Level FlightAware ADS-B
Mon 05:44:45 AM 40.9050 30.6750 293° West 425 489 36,000  Level FlightAware ADS-B
Mon 05:45:20 AM 40.9340 30.5910 295° West 422 486 36,000  Level FlightAware ADS-B
Mon 05:45:55 AM 40.9630 30.5100 295° West 421 484 36,000  Level FlightAware ADS-B
Mon 05:46:30 AM 40.9920 30.4270 295° West 422 486 36,000  Level FlightAware ADS-B
Mon 05:47:05 AM 41.0210 30.3470 296° West 421 484 36,000  Level FlightAware ADS-B
Mon 05:47:40 AM 41.0490 30.2650 294° West 422 486 36,000  Level FlightAware ADS-B
Mon 05:48:15 AM 41.0790 30.1800 295° West 423 487 36,000  Level FlightAware ADS-B
Mon 05:48:50 AM 41.1070 30.0990 295° West 423 487 36,000  Level FlightAware ADS-B
Mon 05:49:26 AM 41.1360 30.0160 295° West 422 486 36,000  Level FlightAware ADS-B
Mon 05:50:00 AM 41.1650 29.9350 295° West 422 486 36,000  Level FlightAware ADS-B
Mon 05:50:35 AM 41.1930 29.8520 294° West 422 486 36,000  Level FlightAware ADS-B
Mon 05:51:10 AM 41.2220 29.7700 295° West 423 487 36,000  Level FlightAware ADS-B
Mon 05:51:45 AM 41.2500 29.6880 294° West 422 486 36,000  Level FlightAware ADS-B
Mon 05:52:20 AM 41.2790 29.6050 295° West 422 486 36,000  Level FlightAware ADS-B
Mon 05:52:55 AM 41.3070 29.5220 294° West 422 486 36,000  Level FlightAware ADS-B
Mon 05:53:30 AM 41.3350 29.4400 294° West 422 486 36,000  Level FlightAware ADS-B
Mon 05:54:05 AM 41.3640 29.3570 295° West 419 482 36,000  Level FlightAware ADS-B
Mon 05:54:40 AM 41.3910 29.2760 294° West 420 483 36,000  Level FlightAware ADS-B
Mon 05:55:15 AM 41.4200 29.1910 294° West 420 483 36,000  Level FlightAware ADS-B
Mon 05:55:50 AM 41.4470 29.1100 294° West 420 483 36,000  Level FlightAware ADS-B
Mon 05:56:25 AM 41.4760 29.0260 295° West 421 484 36,000  Level FlightAware ADS-B
Mon 05:57:00 AM 41.5040 28.9430 294° West 420 483 36,000  Level FlightAware ADS-B
Mon 05:57:35 AM 41.5320 28.8590 294° West 420 483 36,000  Level FlightAware ADS-B
Mon 05:58:10 AM 41.5590 28.7770 294° West 421 484 36,000  Level FlightAware ADS-B
Mon 05:58:45 AM 41.5880 28.6910 294° West 422 486 36,000  Level FlightAware ADS-B
Mon 05:59:25 AM 41.6190 28.5970 294° West 422 486 36,000  Level FlightAware ADS-B
Mon 06:00:00 AM 41.6470 28.5120 294° West 421 484 36,000  Level FlightAware ADS-B
Mon 06:00:40 AM 41.6770 28.4220 294° West 421 484 36,000  Level FlightAware ADS-B
Mon 06:01:10 AM 41.7010 28.3490 294° West 422 486 36,000  Level FlightAware ADS-B
Mon 06:01:50 AM 41.7340 28.2480 294° West 424 488 36,000  Level FlightAware ADS-B
Mon 06:02:20 AM 41.7570 28.1780 294° West 425 489 36,000  Level FlightAware ADS-B
Mon 06:02:55 AM 41.7830 28.0980 294° West 425 489 36,000  Level FlightAware ADS-B
Mon 06:03:35 AM 41.8170 27.9940 294° West 425 489 36,000  Level FlightAware ADS-B
Mon 06:04:10 AM 41.8440 27.9110 294° West 426 490 36,000  Level FlightAware ADS-B
Mon 06:04:40 AM 41.8680 27.8380 294° West 427 491 36,000  Level FlightAware ADS-B
Mon 06:05:15 AM 41.8950 27.7520 293° West 428 493 36,000  Level FlightAware ADS-B
Mon 06:05:55 AM 41.9280 27.6500 294° West 427 491 36,000  Level FlightAware ADS-B
Mon 06:06:25 AM 41.9500 27.5800 293° West 426 490 36,000  Level FlightAware ADS-B
Mon 06:07:10 AM 41.9850 27.4710 293° West 426 490 36,000  Level FlightAware ADS-B
Mon 06:07:45 AM 42.0120 27.3860 293° West 426 490 36,000  Level FlightAware ADS-B
Mon 06:08:20 AM 42.0410 27.2960 293° West 427 491 36,000  Level FlightAware ADS-B
Mon 06:08:55 AM 42.0670 27.2120 293° West 425 489 36,000  Level FlightAware ADS-B
Mon 06:09:30 AM 42.0940 27.1250 293° West 426 490 36,000  Level FlightAware ADS-B
Mon 06:10:05 AM 42.1210 27.0420 294° West 427 491 36,000  Level FlightAware ADS-B
Mon 06:10:40 AM 42.1480 26.9550 293° West 427 491 36,000  Level FlightAware ADS-B
Mon 06:11:10 AM 42.1720 26.8810 294° West 430 495 36,000  Level FlightAware ADS-B
Mon 06:12:03 AM 42.2070 26.7680 293° West 430 495 36,000  Level FlightAware ADS-B
Mon 06:12:39 AM 42.2390 26.6640 293° West 429 494 36,000  Level FlightAware ADS-B
Mon 06:13:15 AM 42.2680 26.5710 293° West 427 491 36,000  Level FlightAware ADS-B
Mon 06:13:55 AM 42.2970 26.4780 293° West 427 491 36,000  Level FlightAware ADS-B
Mon 06:14:40 AM 42.3330 26.3620 293° West 425 489 36,000  Level FlightAware ADS-B
Mon 06:15:15 AM 42.3580 26.2790 292° West 424 488 36,000  Level FlightAware ADS-B
Mon 06:15:45 AM 42.3820 26.2030 293° West 423 487 36,000  Level FlightAware ADS-B
Mon 06:16:20 AM 42.4060 26.1230 292° West 423 487 36,000  Level FlightAware ADS-B
Mon 06:16:55 AM 42.4330 26.0330 292° West 423 487 36,000  Level FlightAware ADS-B
Mon 06:17:35 AM 42.4630 25.9360 293° West 424 488 36,000  Level FlightAware ADS-B
Mon 06:18:05 AM 42.4840 25.8660 292° West 424 488 36,000  Level FlightAware ADS-B
Mon 06:18:40 AM 42.5100 25.7790 292° West 424 488 36,000  Level FlightAware ADS-B
Mon 06:19:20 AM 42.5410 25.6760 292° West 423 487 36,000  Level FlightAware ADS-B
Mon 06:19:55 AM 42.5670 25.5920 293° West 422 486 36,000  Level FlightAware ADS-B
Mon 06:20:25 AM 42.5890 25.5170 292° West 422 486 36,000  Level FlightAware ADS-B
Mon 06:21:00 AM 42.6120 25.4380 292° West 422 486 36,000  Level FlightAware ADS-B
Mon 06:21:35 AM 42.6390 25.3480 292° West 422 486 36,000  Level FlightAware ADS-B
Mon 06:22:10 AM 42.6650 25.2610 292° West 422 486 36,000  Level FlightAware ADS-B
Mon 06:22:50 AM 42.6940 25.1610 292° West 421 484 36,000  Level FlightAware ADS-B
Mon 06:23:20 AM 42.7160 25.0880 292° West 421 484 36,000  Level FlightAware ADS-B
Mon 06:24:00 AM 42.7430 24.9940 291° West 419 482 36,000  Level FlightAware ADS-B
Mon 06:24:35 AM 42.7670 24.9130 292° West 419 482 36,000  Level FlightAware ADS-B
Mon 06:25:05 AM 42.7890 24.8370 292° West 419 482 36,000  Level FlightAware ADS-B
Mon 06:25:40 AM 42.8150 24.7470 292° West 420 483 36,000  Level FlightAware ADS-B
Mon 06:26:20 AM 42.8430 24.6490 291° West 418 481 36,000  Level FlightAware ADS-B
Mon 06:26:50 AM 42.8650 24.5740 292° West 418 481 36,000  Level FlightAware ADS-B
Mon 06:27:25 AM 42.8900 24.4870 291° West 420 483 36,000  Level FlightAware ADS-B
Mon 06:28:05 AM 42.9180 24.3880 291° West 420 483 36,000  Level FlightAware ADS-B
Mon 06:28:40 AM 42.9420 24.3030 291° West 420 483 36,000  Level FlightAware ADS-B
Mon 06:29:17 AM 42.9670 24.2170 292° West 420 483 36,000  Level FlightAware ADS-B
Mon 06:29:50 AM 42.9910 24.1300 291° West 420 483 36,000  Level FlightAware ADS-B
Mon 06:30:25 AM 43.0150 24.0440 291° West 421 484 36,000  Level FlightAware ADS-B
Mon 06:31:00 AM 43.0400 23.9560 291° West 421 484 36,000  Level FlightAware ADS-B
Mon 06:31:40 AM 43.0670 23.8580 291° West 422 486 36,000  Level FlightAware ADS-B
Mon 06:32:15 AM 43.0900 23.7760 291° West 422 486 36,000  Level FlightAware ADS-B
Mon 06:32:50 AM 43.1150 23.6860 291° West 423 487 36,000  Level FlightAware ADS-B
Mon 06:33:25 AM 43.1410 23.5940 291° West 424 488 36,000  Level FlightAware ADS-B
Mon 06:33:55 AM 43.1610 23.5220 291° West 423 487 36,000  Level FlightAware ADS-B
Mon 06:34:35 AM 43.1880 23.4230 291° West 421 484 36,000  Level FlightAware ADS-B
Mon 06:35:10 AM 43.2120 23.3330 290° West 421 484 36,000  Level FlightAware ADS-B
Mon 06:35:45 AM 43.2360 23.2490 291° West 423 487 36,000  Level FlightAware ADS-B
Mon 06:36:20 AM 43.2630 23.1580 292° West 424 488 36,000  Level FlightAware ADS-B
Mon 06:36:55 AM 43.2870 23.0700 291° West 424 488 36,000  Level FlightAware ADS-B
Mon 06:37:30 AM 43.3070 22.9830 288° West 426 490 36,000  Level FlightAware ADS-B
Mon 06:38:05 AM 43.3280 22.8900 287° West 427 491 36,000  Level FlightAware ADS-B
Mon 06:38:40 AM 43.3490 22.8030 288° West 428 493 36,000  Level FlightAware ADS-B
Mon 06:39:21 AM 43.3740 22.6970 288° West 427 491 36,000  Level FlightAware ADS-B
Mon 06:39:55 AM 43.3940 22.6100 288° West 426 490 36,000  Level FlightAware ADS-B
Mon 06:40:35 AM 43.4170 22.5050 287° West 428 493 36,000  Level FlightAware ADS-B
Mon 06:41:10 AM 43.4370 22.4160 287° West 429 494 36,000  Level FlightAware ADS-B
Mon 06:41:45 AM 43.4580 22.3220 287° West 429 494 36,000  Level FlightAware ADS-B
Mon 06:42:15 AM 43.4760 22.2440 288° West 429 494 36,000  Level FlightAware ADS-B
Mon 06:42:55 AM 43.4980 22.1450 287° West 430 495 36,000  Level FlightAware ADS-B
Mon 06:43:25 AM 43.5170 22.0590 287° West 431 496 36,000  Level FlightAware ADS-B
Mon 06:44:00 AM 43.5370 21.9690 287° West 432 497 36,000  Level FlightAware ADS-B
Mon 06:44:40 AM 43.5600 21.8640 287° West 434 499 36,000  Level FlightAware ADS-B
Mon 06:45:15 AM 43.5810 21.7670 287° West 434 499 36,000  Level FlightAware ADS-B
Mon 06:45:47 AM 43.5990 21.6840 287° West 435 501 36,000  Level FlightAware ADS-B
Mon 06:46:25 AM 43.6200 21.5860 287° West 435 501 36,000  Level FlightAware ADS-B
Mon 06:46:57 AM 43.6390 21.4980 287° West 435 501 36,000  Level FlightAware ADS-B
Mon 06:47:34 AM 43.6600 21.4000 287° West 437 503 36,000  Level FlightAware ADS-B
Mon 06:48:11 AM 43.6810 21.2990 286° West 437 503 36,000  Level FlightAware ADS-B
Mon 06:48:43 AM 43.7000 21.2130 287° West 438 504 36,000  Level FlightAware ADS-B
Mon 06:49:19 AM 43.7190 21.1200 286° West 439 505 36,000  Level FlightAware ADS-B
Mon 06:49:53 AM 43.7390 21.0280 287° West 441 507 36,000  Level FlightAware ADS-B
Mon 06:50:31 AM 43.7610 20.9230 286° West 442 509 36,000  Level FlightAware ADS-B
Mon 06:51:03 AM 43.7790 20.8350 286° West 443 510 36,000  Level FlightAware ADS-B
Mon 06:51:39 AM 43.7990 20.7380 286° West 445 512 36,000  Level FlightAware ADS-B
Mon 06:52:15 AM 43.8190 20.6390 286° West 446 513 36,000  Level FlightAware ADS-B
Mon 06:52:47 AM 43.8380 20.5510 287° West 448 516 36,000  Level FlightAware ADS-B
Mon 06:53:21 AM 43.8570 20.4580 286° West 449 517 36,000  Level FlightAware ADS-B
Mon 06:53:59 AM 43.8780 20.3530 286° West 450 518 36,000  Level FlightAware ADS-B
Mon 06:54:35 AM 43.8980 20.2520 285° West 452 520 36,000  Level FlightAware ADS-B
Mon 06:55:09 AM 43.9170 20.1570 286° West 453 521 36,000  Level FlightAware ADS-B
Mon 06:55:45 AM 43.9380 20.0550 286° West 453 521 36,000  Level FlightAware ADS-B
Mon 06:56:15 AM 43.9540 19.9720 285° West 454 522 36,000  Level FlightAware ADS-B
Mon 06:56:51 AM 43.9750 19.8710 286° West 456 525 36,000  Level FlightAware ADS-B
Mon 06:57:28 AM 43.9950 19.7700 285° West 458 527 36,000  Level FlightAware ADS-B
Mon 06:58:04 AM 44.0150 19.6640 285° West 458 527 36,000  Level FlightAware ADS-B
Mon 06:58:40 AM 44.0350 19.5610 285° West 459 528 36,000  Level FlightAware ADS-B
Mon 06:59:14 AM 44.0530 19.4680 285° West 460 529 36,000  Level FlightAware ADS-B
Mon 06:59:48 AM 44.0720 19.3730 286° West 461 531 36,000  Level FlightAware ADS-B
Mon 07:00:29 AM 44.0950 19.2540 285° West 461 531 36,000  Level FlightAware ADS-B
Mon 07:01:04 AM 44.1140 19.1520 285° West 462 532 36,000  Level FlightAware ADS-B
Mon 07:01:40 AM 44.1330 19.0520 285° West 462 532 36,000  Level FlightAware ADS-B
Mon 07:02:15 AM 44.1530 18.9470 285° West 465 535 36,000  Level FlightAware ADS-B
Mon 07:02:50 AM 44.1720 18.8500 285° West 466 536 36,000  Level FlightAware ADS-B
Mon 07:03:27 AM 44.1910 18.7440 284° West 468 539 36,000  Level FlightAware ADS-B
Mon 07:04:02 AM 44.2110 18.6380 285° West 469 540 36,000  Level FlightAware ADS-B
Mon 07:04:35 AM 44.2290 18.5410 285° West 469 540 36,000  Level FlightAware ADS-B
Mon 07:05:10 AM 44.2470 18.4440 285° West 471 542 36,000  Level FlightAware ADS-B
Mon 07:05:45 AM 44.2650 18.3440 284° West 473 544 36,000  Level FlightAware ADS-B
Mon 07:06:20 AM 44.2850 18.2380 285° West 475 547 36,000  Level FlightAware ADS-B
Mon 07:07:11 AM 44.3130 18.0810 284° West 478 550 36,000  Level FlightAware ADS-B
Mon 07:07:41 AM 44.3290 17.9910 284° West 481 554 36,000  Level FlightAware ADS-B
Mon 07:08:16 AM 44.3470 17.8900 284° West 481 554 36,000  Level FlightAware ADS-B
Mon 07:08:56 AM 44.3690 17.7670 284° West 480 552 36,000  Level FlightAware ADS-B
Mon 07:09:28 AM 44.3870 17.6760 286° West 480 552 36,000  Level FlightAware ADS-B
Mon 07:10:01 AM 44.4090 17.5760 287° West 481 554 36,000  Level FlightAware ADS-B
Mon 07:10:36 AM 44.4320 17.4680 287° West 481 554 36,000  Level FlightAware ADS-B
Mon 07:11:06 AM 44.4510 17.3780 287° West 481 554 36,000  Level FlightAware ADS-B
Mon 07:12:03 AM 44.4860 17.2100 286° West 484 557 36,000  Level FlightAware ADS-B
Mon 07:12:38 AM 44.5090 17.0980 286° West 488 562 36,000  Level FlightAware ADS-B
Mon 07:13:13 AM 44.5300 16.9940 286° West 488 562 36,000  Level FlightAware ADS-B
Mon 07:13:53 AM 44.5550 16.8700 286° West 490 564 36,000  Level FlightAware ADS-B
Mon 07:14:29 AM 44.5770 16.7610 286° West 491 565 36,000  Level FlightAware ADS-B
Mon 07:15:05 AM 44.5970 16.6580 285° West 491 565 36,000  Level FlightAware ADS-B
Mon 07:15:40 AM 44.6190 16.5490 286° West 490 564 36,000  Level FlightAware ADS-B
Mon 07:16:16 AM 44.6420 16.4330 286° West 487 560 36,000  Level FlightAware ADS-B
Mon 07:16:49 AM 44.6620 16.3340 286° West 483 556 36,000  Level FlightAware ADS-B
Mon 07:17:24 AM 44.6820 16.2300 285° West 484 557 36,000  Level FlightAware ADS-B
Mon 07:18:00 AM 44.7030 16.1230 285° West 483 556 36,000  Level FlightAware ADS-B
Mon 07:18:34 AM 44.7240 16.0140 285° West 484 557 36,000  Level FlightAware ADS-B
Mon 07:19:13 AM 44.7470 15.8940 285° West 491 565 36,000  Level FlightAware ADS-B
Mon 07:19:44 AM 44.7650 15.7990 285° West 496 571 36,000  Level FlightAware ADS-B
Mon 07:20:21 AM 44.7880 15.6840 286° West 497 572 36,000  Level FlightAware ADS-B
Mon 07:20:57 AM 44.8090 15.5720 285° West 492 566 36,000  Level FlightAware ADS-B
Mon 07:21:30 AM 44.8280 15.4700 285° West 490 564 36,000  Level FlightAware ADS-B
Mon 07:22:05 AM 44.8480 15.3620 285° West 493 567 36,000  Level FlightAware ADS-B
Mon 07:22:42 AM 44.8690 15.2490 285° West 499 574 36,000  Level FlightAware ADS-B
Mon 07:23:18 AM 44.8910 15.1320 285° West 504 580 36,000  Level FlightAware ADS-B
Mon 07:23:49 AM 44.9090 15.0350 285° West 506 582 36,000 -806 Level FlightAware ADS-B
Mon 07:24:25 AM 44.9300 14.9190 284° West 497 572 35,100 -2,083 Descending FlightAware ADS-B
Mon 07:25:01 AM 44.9500 14.8070 284° West 503 579 33,500 -2,382 Descending FlightAware ADS-B
Mon 07:25:33 AM 44.9690 14.7060 285° West 501 577 32,400 -2,909 Descending FlightAware ADS-B
Mon 07:26:07 AM 44.9880 14.5950 284° West 510 587 30,300 -2,757 Descending FlightAware ADS-B
Mon 07:26:47 AM 45.0110 14.4710 285° West 497 572 29,000 -1,950 Descending FlightAware ADS-B
Mon 07:27:27 AM 45.0320 14.3520 284° West 501 577 27,700 -1,957 Descending FlightAware ADS-B
Mon 07:28:19 AM 45.0590 14.1980 284° West 469 540 26,000 -2,024 Descending FlightAware ADS-B
Mon 07:28:50 AM 45.0760 14.1020 284° West 461 531 24,900 -1,970 Descending FlightAware ADS-B
Mon 07:29:26 AM 45.0930 14.0030 284° West 451 519 23,800 -1,909 Descending FlightAware ADS-B
Mon 07:29:56 AM 45.1080 13.9160 284° West 443 510 22,800 -1,881 Descending FlightAware ADS-B
Mon 07:30:33 AM 45.1240 13.8220 284° West 436 502 21,700 -1,920 Descending FlightAware ADS-B
Mon 07:31:11 AM 45.1430 13.7130 284° West 426 490 20,400 -2,057 Descending FlightAware ADS-B
Mon 07:31:43 AM 45.1590 13.6190 284° West 421 484 19,300 -1,970 Descending FlightAware ADS-B
Mon 07:32:18 AM 45.1750 13.5250 284° West 414 476 18,200 -1,840 Descending FlightAware ADS-B
Mon 07:32:58 AM 45.1920 13.4240 283° West 404 465 17,000 -1,775 Descending FlightAware ADS-B
Mon 07:33:29 AM 45.2050 13.3470 284° West 396 456 16,100 -1,700 Descending FlightAware ADS-B
Mon 07:33:58 AM 45.2100 13.2700 275° West 383 441 15,300 -1,846 Descending FlightAware ADS-B
Mon 07:34:34 AM 45.2020 13.1850 262° West 376 433 14,100 -2,091 Descending FlightAware ADS-B
Mon 07:35:04 AM 45.1980 13.1130 266° West 379 436 13,000 -2,314 Descending FlightAware ADS-B
Mon 07:35:44 AM 45.2050 13.0110 276° West 382 440 11,400 -2,000 Descending FlightAware ADS-B
Mon 07:36:19 AM 45.2110 12.9310 276° West 376 433 10,500 -1,607 Descending FlightAware ADS-B
Mon 07:36:40 AM 45.2160 12.8760 277° West 366 421 9,900 -1,756 Descending FlightAware ADS-B
Mon 07:37:00 AM 45.2200 12.8260 276° West 364 419 9,300 -2,100 Descending FlightAware ADS-B
Mon 07:37:20 AM 45.2230 12.7790 275° West 365 420 8,500 -2,294 Descending FlightAware ADS-B
Mon 07:37:34 AM 45.2260 12.7450 277° West 364 419 8,000 -1,765 Descending FlightAware ADS-B
Mon 07:37:54 AM 45.2300 12.6960 277° West 359 413 7,500 -1,696 Descending FlightAware ADS-B
Mon 07:38:20 AM 45.2350 12.6370 277° West 355 409 6,700 -1,902 Descending FlightAware ADS-B
Mon 07:38:35 AM 45.2370 12.6020 275° West 355 409 6,200 -1,846 Descending FlightAware ADS-B
Mon 07:38:59 AM 45.2420 12.5470 277° West 333 383 5,500 -1,333 Descending FlightAware ADS-B
Mon 07:39:20 AM 45.2450 12.5040 276° West 319 367 5,200 -652 Descending FlightAware ADS-B
Mon 07:39:45 AM 45.2490 12.4520 276° West 303 349 5,000 -545 Descending FlightAware ADS-B
Mon 07:40:04 AM 45.2520 12.4160 277° West 293 337 4,800 -600 Descending FlightAware ADS-B
Mon 07:40:25 AM 45.2550 12.3790 277° West 286 329 4,600 -439 Descending FlightAware ADS-B
Mon 07:40:45 AM 45.2570 12.3470 275° West 284 327 4,500 -409 Descending FlightAware ADS-B
Mon 07:41:09 AM 45.2610 12.2960 276° West 283 326 4,300 -409 Descending FlightAware ADS-B
Mon 07:41:29 AM 45.2640 12.2570 276° West 275 316 4,200 -333 Descending FlightAware ADS-B
Mon 07:41:45 AM 45.2650 12.2360 274° West 270 311 4,100 -267 Descending FlightAware ADS-B
Mon 07:42:14 AM 45.2690 12.1820 276° West 246 283 4,000 -176 Descending FlightAware ADS-B
Mon 07:42:19 AM 45.2700 12.1780 290° West 242 278 4,000 -400 Level FlightAware ADS-B
Mon 07:42:29 AM 45.2750 12.1610 293° West 230 265 3,900 -240 Descending FlightAware ADS-B
Mon 07:42:44 AM 45.2860 12.1420 309° West 229 264 3,900  Level FlightAware ADS-B
Mon 07:42:49 AM 45.2880 12.1390 313° West 223 257 3,900 -286 Level FlightAware ADS-B
Mon 07:43:05 AM 45.3040 12.1310 341° North 214 246 3,800 -194 Descending FlightAware ADS-B
Mon 07:43:20 AM 45.3200 12.1290 355° North 207 238 3,800 -143 Level FlightAware ADS-B
Mon 07:43:47 AM 45.3410 12.1420 24° Northeast 182 209 3,700 -383 Descending FlightAware ADS-B
Mon 07:44:07 AM 45.3530 12.1580 43° Northeast 188 216 3,500 -750 Descending FlightAware ADS-B
Mon 07:44:27 AM 45.3650 12.1720 39° Northeast 189 217 3,200 -1,024 Descending FlightAware ADS-B
Mon 07:44:48 AM 45.3800 12.1920 43° Northeast 180 207 2,800 -1,171 Descending FlightAware ADS-B
Mon 07:45:08 AM 45.3930 12.2080 41° Northeast 177 204 2,400 -1,029 Descending FlightAware ADS-B
Mon 07:45:23 AM 45.4020 12.2190 41° Northeast 172 198 2,200 -811 Descending FlightAware ADS-B
Mon 07:45:45 AM 45.4150 12.2360 43° Northeast 152 175 1,900 -732 Descending FlightAware ADS-B
Mon 07:46:04 AM 45.4230 12.2470 44° Northeast 133 153 1,700 -720 Descending FlightAware ADS-B
Mon 07:46:35 AM 45.4370 12.2650 42° Northeast 132 152 1,300 -824 Descending FlightAware ADS-B
Mon 07:46:55 AM 45.4470 12.2770 40° Northeast 133 153 1,000 -769 Descending FlightAware ADS-B
Mon 07:47:14 AM 45.4550 12.2870 41° Northeast 135 155 800 -667 Descending FlightAware ADS-B
Mon 07:47:40 AM 45.4680 12.3040 43° Northeast 137 158 500 -783 Descending FlightAware ADS-B
Mon 07:48:00 AM 45.4770 12.3160 43° Northeast 136 157 200 -900 Descending FlightAware ADS-B
Mon 07:48:20 AM 45.4860 12.3270 41° Northeast 137 158 -600 Descending FlightAware ADS-B
Mon 07:48:49 AM 45.4980 12.3430 43° Northeast 132 152  Level FlightAware ADS-B
Mon 07:51:00 AM 45.5051 12.3519 41° Northeast  Level Estimated
Mon 07:52:00 AM 45.5051 12.3519 46° Northeast  Level Estimated
Mon 07:53:00 AM 45.5051 12.3519 46° Northeast  Level Estimated
Mon 07:54:00 AM 45.5051 12.3519 46° Northeast  Level Estimated

Login

Don't have an account? Register now (free) for customized features, flight alerts, and more!